Time;durP1;ratioP1;P1;durP2;ratioP2;P2;SDS_P1;SDS_P2;PMS_P1;PMS_P2;Temp;Humidity;BMP_temperature;BMP_pressure;BME280_temperature;BME280_humidity;BME280_pressure;Samples;Min_cycle;Max_cycle;Signal;HPM_P1;HPM_P2
2023/09/14 00:00:10;;;;;;;;;;;;;;;13.88;99.26;102337.47;5034484;28;19948;-73
2023/09/14 00:02:35;;;;;;;;;;;;;;;13.84;99.59;102341.97;5033829;28;19924;-73
2023/09/14 00:05:00;;;;;;;;;;;;;;;13.80;99.69;102345.59;5036165;28;19999;-73
2023/09/14 00:07:26;;;;;;;;;;;;;;;13.80;99.87;102341.19;5038087;28;19997;-73
2023/09/14 00:09:51;;;;;;;;;;;;;;;13.77;99.97;102346.56;5038552;28;20190;-73
2023/09/14 00:12:16;;;;;;;;;;;;;;;13.76;99.95;102343.97;5038140;28;19917;-73
2023/09/14 00:14:41;;;;;;;;;;;;;;;13.77;99.94;102343.03;5038037;28;19971;-73
2023/09/14 00:17:07;;;;;;;;;;;;;;;13.81;100.00;102344.69;5038244;28;20248;-73
2023/09/14 00:19:32;;;;;;;;;;;;;;;13.81;99.82;102347.34;5037662;28;19913;-73
2023/09/14 00:21:57;;;;;;;;;;;;;;;13.80;100.00;102346.44;5037874;28;20329;-73
2023/09/14 00:24:23;;;;;;;;;;;;;;;13.79;99.93;102349.16;5037838;28;19966;-73
2023/09/14 00:26:48;;;;;;;;;;;;;;;13.77;99.83;102345.69;5038144;28;19929;-73
2023/09/14 00:29:13;;;;;;;;;;;;;;;13.74;99.95;102341.38;5038131;28;20146;-73
2023/09/14 00:31:39;;;;;;;;;;;;;;;13.70;100.00;102342.38;5037447;28;19932;-73
2023/09/14 00:34:04;;;;;;;;;;;;;;;13.68;100.00;102341.59;5038498;28;19920;-73
2023/09/14 00:36:30;;;;;;;;;;;;;;;13.66;100.00;102335.50;5037177;28;20207;-73
2023/09/14 00:38:55;;;;;;;;;;;;;;;13.67;100.00;102331.09;5037985;28;20193;-73
2023/09/14 00:41:20;;;;;;;;;;;;;;;13.70;100.00;102333.59;5037037;28;20168;-73
2023/09/14 00:43:46;;;;;;;;;;;;;;;13.70;100.00;102338.88;5038041;28;19913;-73
2023/09/14 00:46:11;;;;;;;;;;;;;;;13.69;100.00;102340.66;5037384;28;20095;-73
2023/09/14 00:48:37;;;;;;;;;;;;;;;13.66;100.00;102335.50;5037504;28;19955;-73
2023/09/14 00:51:03;;;;;;;;;;;;;;;13.65;100.00;102335.53;5037602;28;19915;-73
2023/09/14 00:53:28;;;;;;;;;;;;;;;13.61;100.00;102337.41;5037288;28;19967;-73
2023/09/14 00:55:54;;;;;;;;;;;;;;;13.59;100.00;102344.50;5037811;28;19921;-73
2023/09/14 00:58:20;;;;;;;;;;;;;;;13.58;100.00;102342.75;5037143;28;19917;-73
2023/09/14 01:03:48;;;;;;;;;;;;;;;13.57;100.00;102335.75;5506286;22;20963;-72
2023/09/14 01:06:14;;;;;;;;;;;;;;;13.58;100.00;102338.34;5018203;28;19933;-72
2023/09/14 01:08:39;;;;;;;;;;;;;;;13.57;100.00;102341.00;5018360;28;19917;-72
2023/09/14 01:11:04;;;;;;;;;;;;;;;13.56;100.00;102332.25;5017400;28;20146;-72
2023/09/14 01:13:33;;;;;;;;;;;;;;;13.56;100.00;102337.53;5016763;28;19917;-72
2023/09/14 01:16:08;;;;;;;;;;;;;;;13.59;100.00;102341.84;5016896;28;20249;-72
2023/09/14 01:18:38;;;;;;;;;;;;;;;13.60;100.00;102338.28;5017182;28;20092;-72
2023/09/14 01:21:25;;;;;;;;;;;;;;;13.60;100.00;102333.03;5017272;28;20261;-72
2023/09/14 01:24:09;;;;;;;;;;;;;;;13.55;100.00;102335.81;5017091;28;19948;-72
2023/09/14 01:26:34;;;;;;;;;;;;;;;13.50;100.00;102348.25;5016904;28;19913;-72
2023/09/14 01:29:04;;;;;;;;;;;;;;;13.51;100.00;102342.06;5017466;28;20224;-72
2023/09/14 01:31:29;;;;;;;;;;;;;;;13.50;100.00;102331.56;5016564;28;20138;-72
2023/09/14 01:33:54;;;;;;;;;;;;;;;13.53;100.00;102328.84;5017522;28;19937;-72
2023/09/14 01:36:31;;;;;;;;;;;;;;;13.53;100.00;102326.22;5016449;28;19917;-72
2023/09/14 01:38:56;;;;;;;;;;;;;;;13.48;100.00;102325.50;5009990;28;19924;-72
2023/09/14 01:41:22;;;;;;;;;;;;;;;13.42;100.00;102335.31;5016833;28;19917;-72
2023/09/14 01:43:50;;;;;;;;;;;;;;;13.45;100.00;102334.34;5016684;28;19924;-72
2023/09/14 01:46:15;;;;;;;;;;;;;;;13.48;100.00;102330.75;5017071;28;19913;-72
2023/09/14 01:48:40;;;;;;;;;;;;;;;13.50;100.00;102334.19;5016848;28;20170;-72
2023/09/14 01:51:06;;;;;;;;;;;;;;;13.50;100.00;102334.19;5016807;28;19978;-72
2023/09/14 01:53:31;;;;;;;;;;;;;;;13.46;100.00;102327.31;5016233;28;19932;-72
2023/09/14 01:55:56;;;;;;;;;;;;;;;13.39;100.00;102330.13;5017148;28;19956;-72
2023/09/14 01:58:21;;;;;;;;;;;;;;;13.35;100.00;102322.34;5016293;28;20313;-72
2023/09/14 02:00:47;;;;;;;;;;;;;;;13.33;100.00;102330.28;5016397;28;19921;-72
2023/09/14 02:03:12;;;;;;;;;;;;;;;13.34;100.00;102336.44;5016648;28;19988;-72
2023/09/14 02:05:39;;;;;;;;;;;;;;;13.36;100.00;102329.34;5015377;28;19921;-72
2023/09/14 02:08:05;;;;;;;;;;;;;;;13.34;100.00;102324.13;5016426;28;19980;-72
2023/09/14 02:10:30;;;;;;;;;;;;;;;13.29;100.00;102325.13;5015794;28;19916;-72
2023/09/14 02:12:55;;;;;;;;;;;;;;;13.24;100.00;102320.00;5016533;28;20581;-72
2023/09/14 02:15:20;;;;;;;;;;;;;;;13.22;100.00;102312.16;5015505;28;20243;-72
2023/09/14 02:17:46;;;;;;;;;;;;;;;13.20;100.00;102316.59;5016477;28;20207;-72
2023/09/14 02:20:11;;;;;;;;;;;;;;;13.19;100.00;102309.63;5015279;28;19941;-72
2023/09/14 02:22:36;;;;;;;;;;;;;;;13.19;100.00;102301.72;4998052;28;19955;-72
2023/09/14 02:25:02;;;;;;;;;;;;;;;13.20;100.00;102310.47;5016120;28;19920;-72
2023/09/14 02:27:27;;;;;;;;;;;;;;;13.21;100.00;102306.94;5015046;28;20000;-72
2023/09/14 02:29:53;;;;;;;;;;;;;;;13.17;100.00;102306.16;5015310;28;20175;-72
2023/09/14 02:32:18;;;;;;;;;;;;;;;13.12;100.00;102305.44;5015144;28;20208;-72
2023/09/14 02:34:44;;;;;;;;;;;;;;;13.10;100.00;102306.34;5014909;28;19984;-72
2023/09/14 02:37:09;;;;;;;;;;;;;;;13.07;100.00;102300.28;5010826;28;20175;-72
2023/09/14 02:39:34;;;;;;;;;;;;;;;13.06;100.00;102301.22;5015191;28;20131;-72
2023/09/14 02:41:59;;;;;;;;;;;;;;;13.03;100.00;102305.69;5002815;28;19949;-72
2023/09/14 02:44:25;;;;;;;;;;;;;;;13.00;100.00;102311.03;4995487;28;19913;-72
2023/09/14 02:46:50;;;;;;;;;;;;;;;12.98;100.00;102307.56;4996521;28;19953;-72
2023/09/14 02:49:15;;;;;;;;;;;;;;;12.97;100.00;102308.47;4996237;28;19914;-72
2023/09/14 02:51:41;;;;;;;;;;;;;;;12.98;100.00;102297.06;4995959;28;20226;-72
2023/09/14 02:54:06;;;;;;;;;;;;;;;12.99;100.00;102302.28;4996590;28;20224;-73
2023/09/14 02:56:31;;;;;;;;;;;;;;;13.00;100.00;102303.13;5003594;28;19920;-73
2023/09/14 02:58:56;;;;;;;;;;;;;;;13.00;100.00;102303.13;5015841;28;19913;-72
2023/09/14 03:01:22;;;;;;;;;;;;;;;12.98;100.00;102297.91;5014299;28;20191;-72
2023/09/14 03:03:47;;;;;;;;;;;;;;;12.93;100.00;102294.53;5015419;28;20302;-72
2023/09/14 03:06:12;;;;;;;;;;;;;;;12.93;100.00;102298.94;5015160;28;19921;-72
2023/09/14 03:08:38;;;;;;;;;;;;;;;12.96;100.00;102290.97;5014992;28;19920;-72
2023/09/14 03:11:04;;;;;;;;;;;;;;;12.95;100.00;102291.88;5015170;28;19917;-72
2023/09/14 03:13:29;;;;;;;;;;;;;;;12.94;100.00;102296.28;5015163;28;19936;-72
2023/09/14 03:15:56;;;;;;;;;;;;;;;12.94;100.00;102296.28;5015572;28;20330;-72
2023/09/14 03:18:21;;;;;;;;;;;;;;;12.94;100.00;102292.78;5002328;28;19917;-72
2023/09/14 03:20:48;;;;;;;;;;;;;;;12.91;100.00;102284.97;5015563;28;19983;-72
2023/09/14 03:23:14;;;;;;;;;;;;;;;12.86;100.00;102285.09;5015501;28;20099;-72
2023/09/14 03:25:39;;;;;;;;;;;;;;;12.83;100.00;102286.06;5014877;28;19917;-72
2023/09/14 03:28:05;;;;;;;;;;;;;;;12.81;100.00;102292.25;5014865;28;19921;-72
2023/09/14 03:30:30;;;;;;;;;;;;;;;12.77;100.00;102291.47;5014754;28;20008;-72
2023/09/14 03:32:56;;;;;;;;;;;;;;;12.75;100.00;102290.66;5015361;28;19924;-72
2023/09/14 03:35:21;;;;;;;;;;;;;;;12.78;100.00;102289.72;5014900;28;19913;-72
2023/09/14 03:37:46;;;;;;;;;;;;;;;12.78;100.00;102292.34;5015003;28;20036;-72
2023/09/14 03:40:12;;;;;;;;;;;;;;;12.79;100.00;102296.72;4999174;28;19951;-72
2023/09/14 03:42:37;;;;;;;;;;;;;;;12.79;100.00;102289.69;4999519;28;19918;-72
2023/09/14 03:45:02;;;;;;;;;;;;;;;12.80;100.00;102288.75;4999351;28;20132;-72
2023/09/14 03:47:28;;;;;;;;;;;;;;;12.80;100.00;102299.25;4998866;28;19929;-72
2023/09/14 03:49:53;;;;;;;;;;;;;;;12.78;100.00;102294.97;4999400;28;20226;-72
2023/09/14 03:52:18;;;;;;;;;;;;;;;12.73;100.00;102292.44;4999094;28;19918;-72
2023/09/14 03:54:43;;;;;;;;;;;;;;;12.72;100.00;102292.50;4999432;28;20120;-72
2023/09/14 03:57:14;;;;;;;;;;;;;;;12.73;100.00;102291.59;4999120;28;20208;-72
2023/09/14 03:59:43;;;;;;;;;;;;;;;12.71;100.00;102289.00;4999017;28;20302;-72
2023/09/14 04:02:08;;;;;;;;;;;;;;;12.70;100.00;102291.66;4999241;28;19988;-72
2023/09/14 04:04:34;;;;;;;;;;;;;;;12.70;100.00;102291.66;5007341;28;19928;-72
2023/09/14 04:06:59;;;;;;;;;;;;;;;12.69;100.00;102285.56;5016957;28;19997;-72
2023/09/14 04:09:29;;;;;;;;;;;;;;;12.70;100.00;102281.16;5015242;28;19917;-72
2023/09/14 04:11:54;;;;;;;;;;;;;;;12.70;100.00;102287.28;5018597;28;19927;-72
2023/09/14 04:14:19;;;;;;;;;;;;;;;12.67;100.00;102277.69;5017867;28;20255;-72
2023/09/14 04:16:45;;;;;;;;;;;;;;;12.64;100.00;102283.06;5018209;28;19913;-72
2023/09/14 04:19:11;;;;;;;;;;;;;;;12.59;100.00;102282.31;4999211;28;19921;-72
2023/09/14 04:21:36;;;;;;;;;;;;;;;12.58;100.00;102284.97;4998277;28;20167;-72
2023/09/14 04:24:02;;;;;;;;;;;;;;;12.55;100.00;102287.69;4998911;28;19918;-72
2023/09/14 04:26:28;;;;;;;;;;;;;;;12.55;100.00;102282.41;4998246;28;19918;-72
2023/09/14 04:28:53;;;;;;;;;;;;;;;12.57;100.00;102294.63;4999609;28;20196;-72
2023/09/14 04:31:19;;;;;;;;;;;;;;;12.59;100.00;102284.09;4998191;28;20112;-72
2023/09/14 04:33:44;;;;;;;;;;;;;;;12.60;100.00;102280.53;4998976;28;19964;-72
2023/09/14 04:36:09;;;;;;;;;;;;;;;12.59;100.00;102289.34;4998586;28;20310;-72
2023/09/14 04:38:35;;;;;;;;;;;;;;;12.53;100.00;102287.72;5007674;28;20154;-72
2023/09/14 04:41:04;;;;;;;;;;;;;;;12.48;100.00;102285.22;5018631;28;19913;-72
2023/09/14 04:43:32;;;;;;;;;;;;;;;12.43;100.00;102279.22;5006301;28;19925;-72
2023/09/14 04:45:57;;;;;;;;;;;;;;;12.46;100.00;102286.13;5008919;28;19967;-72
2023/09/14 04:48:22;;;;;;;;;;;;;;;12.49;100.00;102291.31;5017201;28;19917;-72
2023/09/14 04:50:48;;;;;;;;;;;;;;;12.49;100.00;102293.97;5017090;28;19933;-72
2023/09/14 04:53:13;;;;;;;;;;;;;;;12.47;100.00;102298.38;5017931;28;20256;-72
2023/09/14 04:55:38;;;;;;;;;;;;;;;12.45;100.00;102293.16;5017744;28;19939;-72
2023/09/14 04:58:04;;;;;;;;;;;;;;;12.46;100.00;102294.03;5018366;28;19952;-72
2023/09/14 05:00:30;;;;;;;;;;;;;;;12.46;100.00;102300.16;5017546;28;19906;-72
2023/09/14 05:02:55;;;;;;;;;;;;;;;12.47;100.00;102294.00;5017456;28;20119;-72
2023/09/14 05:05:20;;;;;;;;;;;;;;;12.49;100.00;102293.97;5016899;28;19921;-72
2023/09/14 05:07:45;;;;;;;;;;;;;;;12.51;100.00;102292.16;5014480;28;19929;-72
2023/09/14 05:10:11;;;;;;;;;;;;;;;12.51;100.00;102292.16;5017169;28;19917;-72
2023/09/14 05:12:36;;;;;;;;;;;;;;;12.51;100.00;102294.78;5017165;28;19913;-72
2023/09/14 05:15:02;;;;;;;;;;;;;;;12.50;100.00;102293.06;4998069;28;19957;-72
2023/09/14 05:17:27;;;;;;;;;;;;;;;12.49;100.00;102294.81;4997244;28;19952;-72
2023/09/14 05:19:53;;;;;;;;;;;;;;;12.47;100.00;102287.88;4997811;28;20452;-72
2023/09/14 05:22:18;;;;;;;;;;;;;;;12.45;100.00;102287.91;4997235;28;20302;-72
2023/09/14 05:24:43;;;;;;;;;;;;;;;12.44;100.00;102282.69;4997623;28;19921;-72
2023/09/14 05:27:09;;;;;;;;;;;;;;;12.42;100.00;102287.13;4997521;28;20097;-72
2023/09/14 05:29:34;;;;;;;;;;;;;;;12.39;100.00;102282.81;5010799;28;19917;-72
2023/09/14 05:31:59;;;;;;;;;;;;;;;12.38;100.00;102291.59;4999400;28;19952;-72
2023/09/14 05:34:25;;;;;;;;;;;;;;;12.36;100.00;102285.53;4997000;28;20167;-72
2023/09/14 05:36:50;;;;;;;;;;;;;;;12.39;100.00;102290.72;5006888;28;19940;-72
2023/09/14 05:39:16;;;;;;;;;;;;;;;12.40;100.00;102289.78;5016004;28;19917;-72
2023/09/14 05:41:41;;;;;;;;;;;;;;;12.40;100.00;102284.53;5016959;28;19913;-72
2023/09/14 05:44:10;;;;;;;;;;;;;;;12.41;100.00;102288.91;4998686;28;19988;-72
2023/09/14 05:46:35;;;;;;;;;;;;;;;12.45;100.00;102285.28;5016089;28;19959;-72
2023/09/14 05:49:01;;;;;;;;;;;;;;;12.49;100.00;102294.81;5016795;28;19921;-72
2023/09/14 05:51:26;;;;;;;;;;;;;;;12.55;100.00;102298.19;5016142;28;20250;-72
2023/09/14 05:53:51;;;;;;;;;;;;;;;12.60;100.00;102306.81;5016868;28;19925;-72
2023/09/14 05:56:17;;;;;;;;;;;;;;;12.63;100.00;102309.38;5016161;28;20089;-72
2023/09/14 05:58:42;;;;;;;;;;;;;;;12.65;100.00;102313.69;5016094;28;19940;-72
2023/09/14 06:01:07;;;;;;;;;;;;;;;12.67;100.00;102318.91;5016573;28;20134;-72
2023/09/14 06:03:33;;;;;;;;;;;;;;;12.69;100.00;102319.72;5015395;28;19976;-72
2023/09/14 06:05:58;;;;;;;;;;;;;;;12.72;100.00;102314.41;5011551;28;19951;-72
2023/09/14 06:08:23;;;;;;;;;;;;;;;12.73;100.00;102310.84;5004021;28;20284;-72
2023/09/14 06:10:49;;;;;;;;;;;;;;;12.74;100.00;102317.84;5016633;28;20211;-72
2023/09/14 06:13:15;;;;;;;;;;;;;;;12.76;100.00;102313.41;5015767;28;20044;-72
2023/09/14 06:15:40;;;;;;;;;;;;;;;12.80;100.00;102316.81;4997806;28;20263;-72
2023/09/14 06:18:06;;;;;;;;;;;;;;;12.82;100.00;102312.38;5016008;28;19971;-73
2023/09/14 06:20:31;;;;;;;;;;;;;;;12.84;100.00;102321.97;5015775;28;19917;-72
2023/09/14 06:22:57;;;;;;;;;;;;;;;12.87;100.00;102315.75;4995964;28;20123;-72
2023/09/14 06:25:22;;;;;;;;;;;;;;;12.90;100.00;102312.16;5006138;28;19944;-72
2023/09/14 06:27:47;;;;;;;;;;;;;;;12.93;100.00;102310.31;5015500;28;20311;-72
2023/09/14 06:30:13;;;;;;;;;;;;;;;12.95;100.00;102308.53;5012032;28;19949;-73
2023/09/14 06:32:38;;;;;;;;;;;;;;;12.99;100.00;102317.19;5015921;28;20140;-72
2023/09/14 06:35:04;;;;;;;;;;;;;;;13.02;100.00;102319.72;5014283;28;20163;-72
2023/09/14 06:37:29;;;;;;;;;;;;;;;13.03;100.00;102321.47;5014719;28;20089;-72
2023/09/14 06:39:55;;;;;;;;;;;;;;;13.07;100.00;102317.84;5015814;28;19910;-73
2023/09/14 06:42:20;;;;;;;;;;;;;;;13.09;100.00;102318.66;5015619;28;19936;-72
2023/09/14 06:44:45;;;;;;;;;;;;;;;13.11;100.00;102321.25;5011794;28;19999;-72
2023/09/14 06:47:10;;;;;;;;;;;;;;;13.15;100.00;102320.25;5010631;28;19956;-72
2023/09/14 06:49:36;;;;;;;;;;;;;;;13.18;100.00;102314.91;5000053;28;19925;-73
2023/09/14 06:52:01;;;;;;;;;;;;;;;13.19;100.00;102317.50;5002771;28;19922;-73
2023/09/14 06:54:27;;;;;;;;;;;;;;;13.24;100.00;102314.72;5007036;28;19940;-72
2023/09/14 06:56:52;;;;;;;;;;;;;;;13.27;100.00;102317.28;5014383;28;19913;-72
2023/09/14 06:59:17;;;;;;;;;;;;;;;13.29;100.00;102315.47;5012418;28;19917;-72
2023/09/14 07:01:43;;;;;;;;;;;;;;;13.31;100.00;102318.94;5011948;28;20363;-72
2023/09/14 07:04:08;;;;;;;;;;;;;;;13.35;100.00;102309.19;5013562;28;20353;-72
2023/09/14 07:06:34;;;;;;;;;;;;;;;13.37;100.00;102310.91;5013905;28;19927;-72
2023/09/14 07:08:59;;;;;;;;;;;;;;;13.41;100.00;102312.53;5014239;28;20215;-73
2023/09/14 07:11:25;;;;;;;;;;;;;;;13.46;100.00;102311.50;5011229;28;19918;-72
2023/09/14 07:13:50;;;;;;;;;;;;;;;13.50;100.00;102313.13;5011923;28;19917;-72
2023/09/14 07:16:16;;;;;;;;;;;;;;;13.54;100.00;102312.16;4998379;28;19989;-73
2023/09/14 07:18:41;;;;;;;;;;;;;;;13.59;100.00;102310.28;4973921;28;20587;-72
2023/09/14 07:21:06;;;;;;;;;;;;;;;13.62;100.00;102312.78;4966002;28;19919;-73
2023/09/14 07:23:31;;;;;;;;;;;;;;;13.66;100.00;102305.66;4965596;28;20197;-73
2023/09/14 07:25:57;;;;;;;;;;;;;;;13.69;100.00;102302.94;4968379;28;20267;-73
2023/09/14 07:28:22;;;;;;;;;;;;;;;13.74;100.00;102309.78;4967222;28;19922;-73
2023/09/14 07:30:48;;;;;;;;;;;;;;;13.77;100.00;102312.34;4965707;28;19925;-73
2023/09/14 07:33:14;;;;;;;;;;;;;;;13.81;100.00;102316.59;4965530;28;20374;-72
2023/09/14 07:35:42;;;;;;;;;;;;;;;13.86;100.00;102318.22;4962856;28;20166;-72
2023/09/14 07:38:08;;;;;;;;;;;;;;;13.90;100.00;102322.47;4966640;28;20182;-73
2023/09/14 07:40:33;;;;;;;;;;;;;;;13.94;100.00;102318.84;4964086;28;19917;-72
2023/09/14 07:42:59;;;;;;;;;;;;;;;13.98;100.00;102325.75;4966195;28;20092;-72
2023/09/14 07:45:24;;;;;;;;;;;;;;;14.02;100.00;102330.88;4968327;28;19921;-72
2023/09/14 07:47:49;;;;;;;;;;;;;;;14.05;100.00;102323.78;4972749;28;19965;-72
2023/09/14 07:50:14;;;;;;;;;;;;;;;14.09;100.00;102334.16;4959882;28;19930;-72
2023/09/14 07:52:41;;;;;;;;;;;;;;;14.13;100.00;102342.84;4962738;28;19917;-72
2023/09/14 07:55:06;;;;;;;;;;;;;;;14.15;100.00;102336.63;4971430;28;19918;-72
2023/09/14 07:57:32;;;;;;;;;;;;;;;14.19;100.00;102340.03;4966350;28;20112;-72
2023/09/14 07:59:57;;;;;;;;;;;;;;;14.21;100.00;102341.69;4965363;28;19924;-72
2023/09/14 08:02:22;;;;;;;;;;;;;;;14.25;100.00;102337.19;4971320;28;19941;-72
2023/09/14 08:04:48;;;;;;;;;;;;;;;14.28;100.00;102334.44;4968995;28;19922;-72
2023/09/14 08:07:15;;;;;;;;;;;;;;;14.30;100.00;102332.63;4967038;28;19926;-72
2023/09/14 08:09:40;;;;;;;;;;;;;;;14.33;100.00;102329.88;4968035;28;19916;-72
2023/09/14 08:12:06;;;;;;;;;;;;;;;14.35;100.00;102333.34;4971588;28;20165;-72
2023/09/14 08:14:31;;;;;;;;;;;;;;;14.38;100.00;102337.63;4963846;28;20009;-72
2023/09/14 08:16:56;;;;;;;;;;;;;;;14.39;100.00;102336.75;4966912;28;19922;-72
2023/09/14 08:19:21;;;;;;;;;;;;;;;14.41;100.00;102332.28;4967141;28;20176;-72
2023/09/14 08:21:47;;;;;;;;;;;;;;;14.45;100.00;102327.75;4967646;28;19918;-72
2023/09/14 08:24:12;;;;;;;;;;;;;;;14.49;100.00;102334.66;4962618;28;20117;-72
2023/09/14 08:26:37;;;;;;;;;;;;;;;14.52;100.00;102327.50;4956801;28;20094;-72
2023/09/14 08:29:03;;;;;;;;;;;;;;;14.56;100.00;102334.38;4958262;28;19918;-72
2023/09/14 08:31:28;;;;;;;;;;;;;;;14.59;100.00;102330.84;4955026;28;19919;-72
2023/09/14 08:33:53;;;;;;;;;;;;;;;14.64;100.00;102336.78;4956987;28;20078;-72
2023/09/14 08:36:18;;;;;;;;;;;;;;;14.67;100.00;102328.78;4963671;28;19945;-72
2023/09/14 08:38:43;;;;;;;;;;;;;;;14.70;100.00;102328.69;4968739;28;19918;-72
2023/09/14 08:41:15;;;;;;;;;;;;;;;14.73;100.00;102341.75;4970283;28;19926;-72
2023/09/14 08:43:40;;;;;;;;;;;;;;;14.78;100.00;102336.31;4967085;28;19918;-72
2023/09/14 08:46:07;;;;;;;;;;;;;;;14.82;100.00;102332.66;4969693;28;20232;-72
2023/09/14 08:48:34;;;;;;;;;;;;;;;14.88;100.00;102334.22;4975490;28;19914;-72
2023/09/14 08:50:59;;;;;;;;;;;;;;;14.92;100.00;102322.66;4975624;28;20112;-72
2023/09/14 08:53:25;;;;;;;;;;;;;;;14.96;100.00;102330.41;4974862;28;19981;-72
2023/09/14 08:55:51;;;;;;;;;;;;;;;15.01;100.00;102329.38;4972432;28;20180;-72
2023/09/14 08:58:18;;;;;;;;;;;;;;;15.06;100.00;102330.06;4961352;28;19915;-72
2023/09/14 09:00:44;;;;;;;;;;;;;;;15.09;100.00;102332.59;4970905;28;19965;-72
2023/09/14 09:03:10;;;;;;;;;;;;;;;15.10;100.00;102332.56;4958988;28;20121;-72
2023/09/14 09:05:35;;;;;;;;;;;;;;;15.18;100.00;102334.06;4959169;28;19922;-72
2023/09/14 09:08:00;;;;;;;;;;;;;;;15.23;100.00;102334.75;4967331;28;20215;-72
2023/09/14 09:10:27;;;;;;;;;;;;;;;15.29;100.00;102337.16;4965942;28;19990;-70
2023/09/14 09:12:56;;;;;;;;;;;;;;;15.35;100.00;102334.28;4964445;28;20013;-71
2023/09/14 09:15:28;;;;;;;;;;;;;;;15.42;100.00;102329.66;4966078;28;19918;-71
2023/09/14 09:17:54;;;;;;;;;;;;;;;15.47;100.00;102325.91;4965032;28;19918;-72
2023/09/14 09:20:23;;;;;;;;;;;;;;;15.53;100.00;102335.38;4960476;28;19949;-72
2023/09/14 09:22:54;;;;;;;;;;;;;;;15.59;100.00;102329.88;4959361;28;19918;-73
2023/09/14 09:25:21;;;;;;;;;;;;;;;15.66;100.00;102328.72;4958594;28;20021;-73
2023/09/14 09:27:46;;;;;;;;;;;;;;;15.71;100.00;102326.75;4958758;28;20149;-73
2023/09/14 09:30:12;;;;;;;;;;;;;;;15.74;100.00;102328.47;4966098;28;19969;-73
2023/09/14 09:32:38;;;;;;;;;;;;;;;15.79;100.00;102323.88;4971546;28;20124;-73
2023/09/14 09:35:22;;;;;;;;;;;;;;;15.84;100.00;102323.66;4963486;28;19952;-73
2023/09/14 09:37:48;;;;;;;;;;;;;;;15.91;100.00;102326.00;4967075;28;19925;-73
2023/09/14 09:40:14;;;;;;;;;;;;;;;16.01;100.00;102323.00;4959226;28;19922;-73
2023/09/14 09:42:40;;;;;;;;;;;;;;;16.07;100.00;102320.13;4968122;28;19921;-73
2023/09/14 09:45:07;;;;;;;;;;;;;;;16.16;100.00;102316.25;4976551;28;20120;-73
2023/09/14 09:47:32;;;;;;;;;;;;;;;16.25;100.00;102323.81;4966007;28;19918;-73
2023/09/14 09:49:58;;;;;;;;;;;;;;;16.30;100.00;102327.13;4971425;28;20235;-73
2023/09/14 09:52:23;;;;;;;;;;;;;;;16.37;100.00;102323.31;4969898;28;19916;-73
2023/09/14 09:54:49;;;;;;;;;;;;;;;16.42;99.98;102323.09;4975949;28;20196;-73
2023/09/14 09:57:15;;;;;;;;;;;;;;;16.45;99.44;102325.63;4971944;28;19953;-73
2023/09/14 09:59:41;;;;;;;;;;;;;;;16.44;99.13;102321.25;4975904;28;20151;-73
2023/09/14 10:02:08;;;;;;;;;;;;;;;16.40;98.96;102323.16;4963390;28;19924;-73
2023/09/14 10:04:34;;;;;;;;;;;;;;;16.38;98.67;102322.38;4963695;28;19916;-73
2023/09/14 10:06:59;;;;;;;;;;;;;;;16.38;98.28;102318.88;4968932;28;19926;-73
2023/09/14 10:09:26;;;;;;;;;;;;;;;16.40;97.99;102323.16;4959473;28;19945;-73
2023/09/14 10:11:51;;;;;;;;;;;;;;;16.46;96.41;102319.41;4959982;28;19956;-73
2023/09/14 10:14:19;;;;;;;;;;;;;;;16.55;96.49;102324.28;4968162;28;19918;-73
2023/09/14 10:16:46;;;;;;;;;;;;;;;16.63;96.34;102318.72;4972210;28;19949;-73
2023/09/14 10:19:12;;;;;;;;;;;;;;;16.68;96.04;102311.41;4959058;28;19918;-73
2023/09/14 10:21:37;;;;;;;;;;;;;;;16.72;94.73;102305.09;4967949;28;19957;-73
2023/09/14 10:24:05;;;;;;;;;;;;;;;16.76;94.36;102311.94;4973649;28;19981;-73
2023/09/14 10:26:31;;;;;;;;;;;;;;;16.76;93.79;102306.66;4974645;28;19921;-73
2023/09/14 10:28:57;;;;;;;;;;;;;;;16.77;93.89;102308.41;4975753;28;20024;-73
2023/09/14 10:31:23;;;;;;;;;;;;;;;16.74;93.86;102308.53;4967414;28;19918;-73
2023/09/14 10:33:49;;;;;;;;;;;;;;;16.71;93.08;102308.63;4958249;28;20010;-73
2023/09/14 10:36:15;;;;;;;;;;;;;;;16.76;92.13;102301.38;4969660;28;19925;-73
2023/09/14 10:38:43;;;;;;;;;;;;;;;16.85;92.04;102300.16;4967496;28;19918;-73
2023/09/14 10:41:08;;;;;;;;;;;;;;;16.92;92.50;102287.47;4958734;28;20153;-73
2023/09/14 10:43:33;;;;;;;;;;;;;;;17.00;91.77;102288.03;4957819;28;19914;-73
2023/09/14 10:46:01;;;;;;;;;;;;;;;17.08;91.75;102297.34;4962495;28;20045;-73
2023/09/14 10:48:29;;;;;;;;;;;;;;;17.17;92.05;102284.59;4966876;28;19925;-73
2023/09/14 10:50:54;;;;;;;;;;;;;;;17.25;87.43;102285.13;4961959;28;19918;-73
2023/09/14 10:53:22;;;;;;;;;;;;;;;17.31;86.00;102290.13;4958531;28;20109;-73
2023/09/14 10:55:47;;;;;;;;;;;;;;;17.37;87.04;102288.97;4960396;28;19956;-73
2023/09/14 10:58:15;;;;;;;;;;;;;;;17.40;86.82;102292.34;4956892;28;19914;-73
2023/09/14 11:00:42;;;;;;;;;;;;;;;17.47;86.86;102284.97;4955799;28;20145;-73
2023/09/14 11:03:08;;;;;;;;;;;;;;;17.51;86.88;102294.50;4955888;28;20220;-73
2023/09/14 11:05:41;;;;;;;;;;;;;;;17.55;87.17;102293.41;4956104;28;19985;-73
2023/09/14 11:08:07;;;;;;;;;;;;;;;17.58;84.36;102297.72;4961729;28;19996;-73
2023/09/14 11:10:34;;;;;;;;;;;;;;;17.59;84.41;102286.19;4975024;28;19914;-73
2023/09/14 11:13:18;;;;;;;;;;;;;;;17.62;84.48;102283.41;4974394;28;19941;-73
2023/09/14 11:15:44;;;;;;;;;;;;;;;17.66;84.93;102277.00;4974248;28;19913;-73
2023/09/14 11:18:09;;;;;;;;;;;;;;;17.70;85.78;102275.06;4959200;28;20161;-73
2023/09/14 11:20:39;;;;;;;;;;;;;;;17.75;85.19;102267.78;4955314;28;19914;-73
2023/09/14 11:23:04;;;;;;;;;;;;;;;17.79;85.69;102272.84;4955116;28;19914;-73
2023/09/14 11:25:36;;;;;;;;;;;;;;;17.80;83.23;102260.47;4955242;29;19915;-73
2023/09/14 11:28:01;;;;;;;;;;;;;;;17.80;82.77;102274.56;4970029;28;19925;-73
2023/09/14 11:30:30;;;;;;;;;;;;;;;17.79;82.08;102266.69;4975784;28;19918;-73
2023/09/14 11:32:56;;;;;;;;;;;;;;;17.83;79.92;102268.28;4956583;28;20213;-73
2023/09/14 11:35:38;;;;;;;;;;;;;;;17.83;80.02;102269.13;4956438;29;19965;-73
2023/09/14 11:38:05;;;;;;;;;;;;;;;17.80;79.09;102271.06;4970438;28;19917;-73
2023/09/14 11:40:34;;;;;;;;;;;;;;;17.76;80.28;102269.50;4975395;28;20197;-73
2023/09/14 11:43:21;;;;;;;;;;;;;;;17.71;81.32;102269.72;4956482;28;19921;-73
2023/09/14 11:45:47;;;;;;;;;;;;;;;17.66;80.93;102266.41;4956528;28;20072;-73
2023/09/14 11:48:13;;;;;;;;;;;;;;;17.63;81.45;102267.44;4955850;28;19958;-73
2023/09/14 11:50:40;;;;;;;;;;;;;;;17.62;82.19;102268.34;4956203;28;19918;-73
2023/09/14 11:53:07;;;;;;;;;;;;;;;17.60;83.09;102264.91;4956372;28;20005;-73
2023/09/14 11:55:33;;;;;;;;;;;;;;;17.60;83.99;102264.91;4955942;28;19914;-73
2023/09/14 11:57:58;;;;;;;;;;;;;;;17.61;83.77;102265.81;4956293;28;19957;-73
2023/09/14 12:00:24;;;;;;;;;;;;;;;17.61;84.13;102265.81;4956652;28;19985;-73
2023/09/14 12:02:49;;;;;;;;;;;;;;;17.62;83.97;102263.06;4959610;28;20190;-73
2023/09/14 12:05:15;;;;;;;;;;;;;;;17.61;83.18;102261.34;4960069;29;19952;-73
2023/09/14 12:07:40;;;;;;;;;;;;;;;17.65;83.45;102262.91;4961069;28;19919;-73
2023/09/14 12:10:18;;;;;;;;;;;;;;;17.70;81.29;102269.78;4979574;28;20228;-73
2023/09/14 12:12:43;;;;;;;;;;;;;;;17.73;79.61;102262.53;4960936;28;20194;-73
2023/09/14 12:15:16;;;;;;;;;;;;;;;17.76;79.04;102261.56;4960389;29;19914;-73
2023/09/14 12:17:41;;;;;;;;;;;;;;;17.74;73.67;102264.28;4959342;28;19977;-73
2023/09/14 12:20:11;;;;;;;;;;;;;;;17.78;75.17;102260.53;4960302;29;19921;-73
2023/09/14 12:22:36;;;;;;;;;;;;;;;17.79;75.78;102253.44;4964697;28;19937;-73
2023/09/14 12:25:03;;;;;;;;;;;;;;;17.80;76.33;102255.16;4960010;29;20219;-73